Time;durP1;ratioP1;P1;durP2;ratioP2;P2;SDS_P1;SDS_P2;PMS_P1;PMS_P2;Temp;Humidity;BMP_temperature;BMP_pressure;BME280_temperature;BME280_humidity;BME280_pressure;Samples;Min_cycle;Max_cycle;Signal;HPM_P1;HPM_P2
2023/02/07 00:01:12;;;;;;;6.72;4.55;;;6.20;99.90;;;;;;5073938;28;20024;-37
2023/02/07 00:03:38;;;;;;;7.43;4.53;;;6.30;99.90;;;;;;5074647;28;20510;-38
2023/02/07 00:06:10;;;;;;;6.97;4.35;;;6.40;99.90;;;;;;5073485;28;20033;-34
2023/02/07 00:08:36;;;;;;;6.03;4.70;;;6.60;99.90;;;;;;5073957;28;20411;-33
2023/02/07 00:11:06;;;;;;;6.45;4.50;;;6.80;99.90;;;;;;5073713;28;20054;-37
2023/02/07 00:13:33;;;;;;;6.13;4.63;;;6.80;99.90;;;;;;5073771;28;20028;-40
2023/02/07 00:15:58;;;;;;;6.18;4.75;;;6.80;99.90;;;;;;5073348;28;20062;-42
2023/02/07 00:18:25;;;;;;;6.07;4.07;;;6.80;99.90;;;;;;5073867;28;20033;-39
2023/02/07 00:21:02;;;;;;;7.85;5.00;;;6.80;99.90;;;;;;5074930;28;20071;-39
2023/02/07 00:23:28;;;;;;;8.95;5.40;;;6.70;99.90;;;;;;5074985;28;20490;-45
2023/02/07 00:25:54;;;;;;;6.82;4.55;;;6.60;99.90;;;;;;5073410;28;20032;-45
2023/02/07 00:28:20;;;;;;;6.18;4.65;;;6.50;99.90;;;;;;5073356;28;20035;-43
2023/02/07 00:30:45;;;;;;;5.78;4.90;;;6.50;99.90;;;;;;5074030;28;20029;-40
2023/02/07 00:33:11;;;;;;;6.20;4.65;;;6.40;99.90;;;;;;5073972;28;20236;-35
2023/02/07 00:35:38;;;;;;;7.40;4.82;;;6.40;99.90;;;;;;5072618;28;20044;-38
2023/02/07 00:38:04;;;;;;;7.43;5.20;;;6.30;99.90;;;;;;5074858;28;20024;-38
2023/02/07 00:40:29;;;;;;;6.95;5.18;;;6.30;99.90;;;;;;5073857;28;20059;-40
2023/02/07 00:42:55;;;;;;;6.70;5.15;;;6.20;99.90;;;;;;5073022;28;20077;-42
2023/02/07 00:45:20;;;;;;;6.28;5.20;;;6.20;99.90;;;;;;5073042;28;20058;-44
2023/02/07 00:47:46;;;;;;;8.07;5.78;;;6.20;99.90;;;;;;5072922;28;20024;-44
2023/02/07 00:50:12;;;;;;;8.20;5.40;;;6.20;99.90;;;;;;5072960;28;20408;-44
2023/02/07 00:52:37;;;;;;;7.90;5.40;;;6.10;99.90;;;;;;5073005;28;20032;-37
2023/02/07 00:55:03;;;;;;;6.97;5.63;;;6.10;99.90;;;;;;5072987;28;20031;-38
2023/02/07 00:57:29;;;;;;;9.05;5.40;;;6.10;99.90;;;;;;5072658;28;20483;-36
2023/02/07 00:59:54;;;;;;;9.10;5.38;;;6.00;99.90;;;;;;5072610;28;20051;-36
2023/02/07 01:02:20;;;;;;;7.55;5.40;;;6.00;99.90;;;;;;5072980;28;20025;-34
2023/02/07 01:04:46;;;;;;;7.88;5.93;;;6.10;99.90;;;;;;5072778;28;20021;-41
2023/02/07 01:07:12;;;;;;;8.05;5.65;;;6.20;99.90;;;;;;5073229;28;20037;-36
2023/02/07 01:09:38;;;;;;;7.88;5.40;;;6.40;99.90;;;;;;5074159;28;20096;-45
2023/02/07 01:12:05;;;;;;;8.60;5.25;;;6.60;99.90;;;;;;5074009;28;20448;-45
2023/02/07 01:14:31;;;;;;;7.63;5.20;;;6.60;99.90;;;;;;5074319;28;20033;-43
2023/02/07 01:16:57;;;;;;;6.57;5.05;;;6.60;99.90;;;;;;5072012;28;20139;-42
2023/02/07 01:19:22;;;;;;;8.00;5.15;;;6.60;99.90;;;;;;5072934;28;20178;-40
2023/02/07 01:21:48;;;;;;;6.68;5.13;;;6.50;99.90;;;;;;5072604;28;20040;-44
2023/02/07 01:24:14;;;;;;;7.65;5.15;;;6.40;99.90;;;;;;5072349;28;20162;-44
2023/02/07 01:26:39;;;;;;;7.82;5.85;;;6.40;99.90;;;;;;5072004;28;20073;-44
2023/02/07 01:29:05;;;;;;;8.73;5.30;;;6.30;99.90;;;;;;5072177;28;20382;-43
2023/02/07 01:31:31;;;;;;;8.40;6.03;;;6.30;99.90;;;;;;5072131;28;20021;-42
2023/02/07 01:33:59;;;;;;;9.57;5.28;;;6.20;99.90;;;;;;5073468;28;20378;-42
2023/02/07 01:36:27;;;;;;;8.07;5.47;;;6.20;99.90;;;;;;5070742;28;20059;-45
2023/02/07 01:38:53;;;;;;;7.97;5.88;;;6.20;99.90;;;;;;5072587;28;20567;-45
2023/02/07 01:41:21;;;;;;;8.55;6.10;;;6.10;99.90;;;;;;5071875;28;20108;-39
2023/02/07 01:43:57;;;;;;;7.25;5.55;;;6.10;99.90;;;;;;5072079;28;20029;-45
2023/02/07 01:46:24;;;;;;;9.02;5.35;;;6.10;99.90;;;;;;5071712;28;20028;-44
2023/02/07 01:48:54;;;;;;;8.63;6.07;;;6.00;99.90;;;;;;5072168;28;20025;-43
2023/02/07 01:51:20;;;;;;;8.13;5.55;;;6.00;99.90;;;;;;5071681;28;20522;-43
2023/02/07 01:53:46;;;;;;;9.38;5.82;;;6.00;99.90;;;;;;5071733;28;20116;-42
2023/02/07 01:56:14;;;;;;;7.68;5.57;;;6.00;99.90;;;;;;5072809;28;20037;-40
2023/02/07 01:58:39;;;;;;;7.88;5.75;;;6.00;99.90;;;;;;5072951;28;20036;-45
2023/02/07 02:01:09;;;;;;;7.57;5.47;;;6.00;99.90;;;;;;5072803;28;20035;-45
2023/02/07 02:03:40;;;;;;;6.88;5.40;;;5.90;99.90;;;;;;5071656;28;20025;-45
2023/02/07 02:06:06;;;;;;;8.48;5.90;;;6.10;99.90;;;;;;5071477;28;20028;-45
2023/02/07 02:08:32;;;;;;;9.30;5.70;;;6.30;99.90;;;;;;5071991;28;20035;-45
2023/02/07 02:11:35;;;;;;;8.60;5.80;;;6.50;99.90;;;;;;5071637;28;20111;-44
2023/02/07 02:14:16;;;;;;;8.70;5.57;;;6.60;99.90;;;;;;5069994;28;20032;-45
2023/02/07 02:17:34;;;;;;;7.90;5.32;;;6.60;99.90;;;;;;5071169;28;20360;-44
2023/02/07 02:20:35;;;;;;;8.27;5.72;;;6.50;99.90;;;;;;5069966;28;20053;-44
2023/02/07 02:23:08;;;;;;;8.43;5.43;;;6.50;99.90;;;;;;5071974;28;20037;-45
2023/02/07 02:25:37;;;;;;;7.28;5.47;;;6.40;99.90;;;;;;5071352;28;20016;-45
2023/02/07 02:28:40;;;;;;;9.30;5.85;;;6.40;99.90;;;;;;5071129;28;20474;-45
2023/02/07 02:31:08;;;;;;;9.23;6.00;;;6.30;99.90;;;;;;5071679;28;20415;-42
2023/02/07 02:33:59;;;;;;;8.02;5.75;;;6.20;99.90;;;;;;5072691;28;20020;-45
2023/02/07 02:36:46;;;;;;;8.68;5.70;;;6.20;99.90;;;;;;5072797;28;20183;-45
2023/02/07 02:39:21;;;;;;;9.15;6.28;;;6.20;99.90;;;;;;5070928;28;20453;-45
2023/02/07 02:42:22;;;;;;;7.85;6.03;;;6.10;99.90;;;;;;5071086;28;20054;-45
2023/02/07 02:44:56;;;;;;;7.90;5.32;;;6.10;99.90;;;;;;5071279;28;20059;-45
2023/02/07 02:47:23;;;;;;;9.35;6.45;;;6.10;99.90;;;;;;5073115;28;20290;-44
2023/02/07 02:49:49;;;;;;;8.85;6.20;;;6.00;99.90;;;;;;5071108;28;20040;-44
2023/02/07 02:52:15;;;;;;;9.20;6.13;;;6.00;99.90;;;;;;5071086;28;20036;-44
2023/02/07 02:54:41;;;;;;;11.52;6.80;;;6.00;99.90;;;;;;5071116;28;20020;-44
2023/02/07 02:57:35;;;;;;;9.32;7.55;;;6.00;99.90;;;;;;5071588;28;20064;-44
2023/02/07 03:00:31;;;;;;;8.85;6.30;;;5.90;99.90;;;;;;5072217;28;20036;-40
2023/02/07 03:03:27;;;;;;;9.73;6.18;;;5.90;99.90;;;;;;5072807;28;20044;-40
2023/02/07 03:06:20;;;;;;;11.35;6.45;;;6.00;99.90;;;;;;5075910;28;20028;-38
2023/02/07 03:09:16;;;;;;;9.05;6.70;;;6.20;99.90;;;;;;5075810;28;20050;-38
2023/02/07 03:12:05;;;;;;;9.05;6.47;;;6.50;99.90;;;;;;5074899;28;20020;-39
2023/02/07 03:14:54;;;;;;;9.20;6.72;;;6.60;99.90;;;;;;5074156;28;20036;-37
2023/02/07 03:17:37;;;;;;;8.75;6.30;;;6.60;99.90;;;;;;5074790;28;20082;-44
2023/02/07 03:20:43;;;;;;;9.57;6.68;;;6.50;99.90;;;;;;5074742;28;20028;-45
2023/02/07 03:23:10;;;;;;;9.52;6.25;;;6.40;99.90;;;;;;5072639;28;20044;-43
2023/02/07 03:25:38;;;;;;;8.93;6.40;;;6.30;99.90;;;;;;5069641;28;20036;-44
2023/02/07 03:28:05;;;;;;;10.77;7.07;;;6.30;99.90;;;;;;5074378;28;20052;-45
2023/02/07 03:30:34;;;;;;;9.85;6.65;;;6.30;99.90;;;;;;5074602;28;20222;-45
2023/02/07 03:33:07;;;;;;;9.63;6.80;;;6.20;99.90;;;;;;5075398;28;20020;-45
2023/02/07 03:35:55;;;;;;;9.07;6.60;;;6.10;99.90;;;;;;5075760;28;20071;-45
2023/02/07 03:38:21;;;;;;;8.63;6.70;;;6.00;99.90;;;;;;5074471;28;20028;-45
2023/02/07 03:40:52;;;;;;;8.82;6.55;;;6.00;99.90;;;;;;5074919;28;20025;-45
2023/02/07 03:43:23;;;;;;;9.13;6.97;;;6.00;99.90;;;;;;5075275;28;20034;-39
2023/02/07 03:45:49;;;;;;;10.40;6.45;;;6.00;99.90;;;;;;5075057;28;20021;-44
2023/02/07 03:48:15;;;;;;;10.38;6.72;;;6.00;99.90;;;;;;5074170;28;20024;-44
2023/02/07 03:50:40;;;;;;;10.80;6.93;;;6.00;99.90;;;;;;5074682;28;20056;-43
2023/02/07 03:53:06;;;;;;;9.45;7.07;;;5.90;99.90;;;;;;5074177;28;20024;-40
2023/02/07 03:55:32;;;;;;;9.48;6.72;;;5.90;99.90;;;;;;5074004;28;20028;-45
2023/02/07 03:57:57;;;;;;;10.43;7.15;;;5.90;99.90;;;;;;5074435;28;20107;-45
2023/02/07 04:00:23;;;;;;;9.68;6.95;;;5.90;99.90;;;;;;5074690;28;20086;-44
2023/02/07 04:02:49;;;;;;;9.40;7.00;;;5.80;99.90;;;;;;5074183;28;20059;-43
2023/02/07 04:05:15;;;;;;;9.10;6.63;;;5.90;99.90;;;;;;5073558;28;20451;-42
2023/02/07 04:07:41;;;;;;;10.70;6.85;;;6.10;99.90;;;;;;5073634;28;20020;-43
2023/02/07 04:10:08;;;;;;;9.35;6.55;;;6.30;99.90;;;;;;5074164;28;20016;-42
2023/02/07 04:12:34;;;;;;;9.20;6.68;;;6.50;99.90;;;;;;5072799;28;20406;-45
2023/02/07 04:15:01;;;;;;;9.45;7.03;;;6.60;99.90;;;;;;5073692;28;20084;-45
2023/02/07 04:17:28;;;;;;;9.75;6.78;;;6.50;99.90;;;;;;5073459;28;20028;-42
2023/02/07 04:19:55;;;;;;;10.10;6.88;;;6.50;99.90;;;;;;5073696;28;20431;-43
2023/02/07 04:22:21;;;;;;;10.60;7.05;;;6.40;99.90;;;;;;5074785;28;20082;-45
2023/02/07 04:24:46;;;;;;;10.75;7.43;;;6.40;99.90;;;;;;5074130;28;20036;-45
2023/02/07 04:27:12;;;;;;;11.70;6.85;;;6.30;99.90;;;;;;5073835;28;20368;-42
2023/02/07 04:29:38;;;;;;;9.25;7.05;;;6.20;99.90;;;;;;5073389;28;20382;-44
2023/02/07 04:32:04;;;;;;;10.27;7.03;;;6.20;99.90;;;;;;5073440;28;20024;-45
2023/02/07 04:34:29;;;;;;;13.32;7.20;;;6.10;99.90;;;;;;5073394;28;20222;-44
2023/02/07 04:36:55;;;;;;;8.63;6.18;;;6.10;99.90;;;;;;5073195;28;20021;-33
2023/02/07 04:39:21;;;;;;;8.80;6.97;;;6.00;99.90;;;;;;5075958;28;20495;-39
2023/02/07 04:41:46;;;;;;;9.15;6.55;;;6.00;99.90;;;;;;5073209;28;20016;-36
2023/02/07 04:44:12;;;;;;;9.15;6.70;;;6.00;99.90;;;;;;5073149;28;20028;-40
2023/02/07 04:46:38;;;;;;;8.75;7.13;;;5.90;99.90;;;;;;5072817;28;20020;-37
2023/02/07 04:49:04;;;;;;;9.30;6.72;;;5.90;99.90;;;;;;5073151;28;20056;-36
2023/02/07 04:51:30;;;;;;;10.07;7.05;;;5.90;99.90;;;;;;5073033;28;20032;-36
2023/02/07 04:53:56;;;;;;;10.15;7.15;;;5.90;99.90;;;;;;5073816;28;20033;-39
2023/02/07 04:56:22;;;;;;;9.50;6.15;;;5.80;99.90;;;;;;5074235;28;20029;-36
2023/02/07 04:58:47;;;;;;;11.32;7.47;;;5.80;99.90;;;;;;5073717;28;20085;-39
2023/02/07 05:01:13;;;;;;;9.68;6.90;;;5.80;99.90;;;;;;5072707;28;20099;-38
2023/02/07 05:03:39;;;;;;;9.20;7.43;;;5.80;99.90;;;;;;5073239;28;20520;-42
2023/02/07 05:06:05;;;;;;;11.38;6.78;;;5.90;99.90;;;;;;5072536;28;20500;-39
2023/02/07 05:08:31;;;;;;;11.52;6.70;;;6.10;99.90;;;;;;5073177;28;20070;-39
2023/02/07 05:10:56;;;;;;;11.68;7.03;;;6.30;99.90;;;;;;5072644;28;20041;-45
2023/02/07 05:13:23;;;;;;;9.93;6.85;;;6.50;99.90;;;;;;5072604;28;20028;-44
2023/02/07 05:15:49;;;;;;;8.93;6.55;;;6.50;99.90;;;;;;5072329;28;20024;-44
2023/02/07 05:18:15;;;;;;;9.52;6.78;;;6.40;99.90;;;;;;5072551;28;20502;-43
2023/02/07 05:20:41;;;;;;;10.70;7.40;;;6.40;99.90;;;;;;5072510;28;20026;-35
2023/02/07 05:23:07;;;;;;;10.38;7.30;;;6.30;99.90;;;;;;5073863;28;20367;-35
2023/02/07 05:25:32;;;;;;;11.02;7.25;;;6.30;99.90;;;;;;5073102;28;20103;-39
2023/02/07 05:27:58;;;;;;;10.57;6.72;;;6.20;99.90;;;;;;5072096;28;20110;-35
2023/02/07 05:30:24;;;;;;;10.20;7.43;;;6.20;99.90;;;;;;5072183;28;20095;-41
2023/02/07 05:33:04;;;;;;;9.75;6.90;;;6.10;99.90;;;;;;5071067;28;20025;-39
2023/02/07 05:35:32;;;;;;;8.68;6.70;;;6.00;99.90;;;;;;5072309;28;20043;-40
2023/02/07 05:37:58;;;;;;;9.82;6.75;;;6.00;99.90;;;;;;5072356;28;20032;-42
2023/02/07 05:40:24;;;;;;;10.50;7.40;;;6.00;99.90;;;;;;5072372;28;20021;-36
2023/02/07 05:42:49;;;;;;;11.15;7.22;;;5.90;99.90;;;;;;5070595;28;20029;-41
2023/02/07 05:45:15;;;;;;;10.90;7.50;;;5.90;99.90;;;;;;5072543;28;20482;-39
2023/02/07 05:47:41;;;;;;;10.90;7.32;;;5.80;99.90;;;;;;5071749;28;20020;-37
2023/02/07 05:50:07;;;;;;;9.40;6.97;;;5.80;99.90;;;;;;5071945;28;20032;-41
2023/02/07 05:52:33;;;;;;;10.05;7.65;;;5.80;99.90;;;;;;5073100;28;20032;-36
2023/02/07 05:54:58;;;;;;;12.68;7.57;;;5.80;99.90;;;;;;5072103;28;20031;-40
2023/02/07 05:57:24;;;;;;;11.00;6.97;;;5.80;99.90;;;;;;5071635;28;20482;-35
2023/02/07 05:59:50;;;;;;;11.93;7.78;;;5.70;99.90;;;;;;5072379;28;20036;-38
2023/02/07 06:02:15;;;;;;;10.95;7.45;;;5.70;99.90;;;;;;5071830;28;20494;-37
2023/02/07 06:04:41;;;;;;;13.40;7.22;;;5.70;99.90;;;;;;5071995;28;20453;-41
2023/02/07 06:07:07;;;;;;;11.38;8.70;;;5.90;99.90;;;;;;5072512;28;20025;-34
2023/02/07 06:09:33;;;;;;;11.82;7.85;;;6.10;99.90;;;;;;5071682;28;20099;-40
2023/02/07 06:11:59;;;;;;;12.15;7.60;;;6.30;99.90;;;;;;5071554;28;20421;-37
2023/02/07 06:14:24;;;;;;;11.20;7.57;;;6.30;99.90;;;;;;5071385;28;20074;-35
2023/02/07 06:16:50;;;;;;;11.70;7.47;;;6.40;99.90;;;;;;5071224;28;20021;-41
2023/02/07 06:19:15;;;;;;;11.77;8.30;;;6.30;99.90;;;;;;5072088;28;20066;-38
2023/02/07 06:21:41;;;;;;;11.20;7.70;;;6.30;99.90;;;;;;5071550;28;20051;-38
2023/02/07 06:24:07;;;;;;;12.27;7.88;;;6.20;99.90;;;;;;5071726;28;20028;-39
2023/02/07 06:26:33;;;;;;;9.90;7.43;;;6.20;99.90;;;;;;5071029;28;20060;-39
2023/02/07 06:28:58;;;;;;;11.45;8.35;;;6.10;99.90;;;;;;5071469;28;20035;-39
2023/02/07 06:31:24;;;;;;;12.35;8.25;;;6.00;99.90;;;;;;5071563;28;20017;-41
2023/02/07 06:33:50;;;;;;;11.77;8.27;;;6.00;99.90;;;;;;5071416;28;20033;-40
2023/02/07 06:36:16;;;;;;;11.30;8.27;;;5.90;99.90;;;;;;5071654;28;20518;-35
2023/02/07 06:38:41;;;;;;;12.20;8.25;;;5.90;99.90;;;;;;5071244;28;20363;-35
2023/02/07 06:41:10;;;;;;;12.18;8.15;;;5.80;99.90;;;;;;5069945;28;20035;-39
2023/02/07 06:43:36;;;;;;;11.63;7.68;;;5.80;99.90;;;;;;5071024;28;20028;-35
2023/02/07 06:46:02;;;;;;;12.38;8.10;;;5.80;99.90;;;;;;5071296;28;20378;-33
2023/02/07 06:48:27;;;;;;;10.40;7.78;;;5.70;99.90;;;;;;5072390;28;20095;-36
2023/02/07 06:50:53;;;;;;;11.85;8.77;;;5.70;99.90;;;;;;5071010;28;20029;-39
2023/02/07 06:53:19;;;;;;;10.30;7.85;;;5.70;99.90;;;;;;5071875;28;20074;-35
2023/02/07 06:55:44;;;;;;;12.10;7.95;;;5.70;99.90;;;;;;5070837;28;20104;-39
2023/02/07 06:58:10;;;;;;;13.13;9.27;;;5.60;99.90;;;;;;5071127;28;20115;-39
2023/02/07 07:00:35;;;;;;;13.98;8.82;;;5.60;99.90;;;;;;5071025;28;20033;-39
2023/02/07 07:03:01;;;;;;;11.85;8.27;;;5.60;99.90;;;;;;5071220;28;20020;-40
2023/02/07 07:05:28;;;;;;;11.10;7.90;;;5.70;99.90;;;;;;5070991;28;20024;-38
2023/02/07 07:07:55;;;;;;;14.57;8.73;;;5.90;99.90;;;;;;5071992;28;20028;-38
2023/02/07 07:10:21;;;;;;;12.38;8.25;;;6.10;99.90;;;;;;5070890;28;20067;-38
2023/02/07 07:12:47;;;;;;;11.82;8.38;;;6.20;99.90;;;;;;5070849;28;20490;-40
2023/02/07 07:15:13;;;;;;;12.70;8.20;;;6.30;99.90;;;;;;5070858;28;20032;-39
2023/02/07 07:17:39;;;;;;;14.52;8.60;;;6.30;99.90;;;;;;5070667;28;20543;-36
2023/02/07 07:20:06;;;;;;;12.48;8.65;;;6.30;99.90;;;;;;5072011;28;20028;-41
2023/02/07 07:22:33;;;;;;;11.02;8.23;;;6.20;99.90;;;;;;5071900;28;20367;-40
2023/02/07 07:24:59;;;;;;;12.70;8.43;;;6.10;99.90;;;;;;5071100;28;20021;-38
2023/02/07 07:27:24;;;;;;;14.57;9.00;;;6.00;99.90;;;;;;5070492;28;20017;-39
2023/02/07 07:29:50;;;;;;;12.38;8.50;;;6.00;99.90;;;;;;5071537;28;20052;-35
2023/02/07 07:32:17;;;;;;;12.05;8.40;;;5.90;99.90;;;;;;5070482;28;20734;-37
2023/02/07 07:34:43;;;;;;;12.10;8.85;;;5.90;99.90;;;;;;5069879;28;20024;-38
2023/02/07 07:37:11;;;;;;;14.48;8.68;;;5.80;99.90;;;;;;5071182;28;20059;-38
2023/02/07 07:39:37;;;;;;;11.52;8.40;;;5.80;99.90;;;;;;5071056;28;20506;-39
2023/02/07 07:42:03;;;;;;;13.57;9.10;;;5.80;99.90;;;;;;5071445;28;20052;-39
2023/02/07 07:44:28;;;;;;;12.55;8.90;;;5.80;99.90;;;;;;5069896;28;20033;-36
2023/02/07 07:46:54;;;;;;;12.45;8.63;;;5.80;99.90;;;;;;5070356;28;20467;-37
2023/02/07 07:49:20;;;;;;;15.93;9.63;;;5.80;99.90;;;;;;5072097;28;20067;-36
2023/02/07 07:51:45;;;;;;;13.80;9.07;;;5.80;99.90;;;;;;5074457;28;20016;-40
2023/02/07 07:54:12;;;;;;;13.20;8.65;;;5.80;99.90;;;;;;5074201;28;20032;-41
2023/02/07 07:56:38;;;;;;;15.27;8.63;;;5.80;99.90;;;;;;5074611;28;20111;-39
2023/02/07 07:59:04;;;;;;;13.57;9.15;;;5.80;99.90;;;;;;5074161;28;20120;-39
2023/02/07 08:01:29;;;;;;;13.30;8.15;;;5.80;99.90;;;;;;5074814;28;20540;-36
2023/02/07 08:03:55;;;;;;;15.65;9.57;;;5.80;99.90;;;;;;5075476;28;20032;-40
2023/02/07 08:06:21;;;;;;;14.10;9.02;;;5.80;99.90;;;;;;5073383;28;20024;-39
2023/02/07 08:08:46;;;;;;;13.93;9.00;;;5.90;99.90;;;;;;5074626;28;20432;-35
2023/02/07 08:11:12;;;;;;;11.57;8.30;;;5.90;99.90;;;;;;5073779;28;20486;-42
2023/02/07 08:13:37;;;;;;;13.60;8.30;;;5.90;99.90;;;;;;5074414;28;20038;-37
2023/02/07 08:16:07;;;;;;;11.60;8.55;;;5.90;99.90;;;;;;5074349;28;20048;-36
2023/02/07 08:18:33;;;;;;;12.85;8.43;;;5.90;99.90;;;;;;5074138;28;20032;-39
2023/02/07 08:20:59;;;;;;;12.88;8.48;;;5.90;99.90;;;;;;5073050;28;20024;-38
2023/02/07 08:23:25;;;;;;;9.90;7.93;;;5.90;99.90;;;;;;5073951;28;20043;-38
2023/02/07 08:25:51;;;;;;;13.52;9.18;;;6.00;99.90;;;;;;5073412;28;20390;-37
2023/02/07 08:28:17;;;;;;;12.63;8.70;;;6.00;99.90;;;;;;5073451;28;20497;-39
2023/02/07 08:30:46;;;;;;;12.85;9.00;;;6.00;99.90;;;;;;5073328;28;20020;-39
2023/02/07 08:33:12;;;;;;;11.95;8.45;;;6.00;99.90;;;;;;5074535;28;20017;-38
2023/02/07 08:35:38;;;;;;;12.80;9.07;;;6.00;99.90;;;;;;5073383;28;20111;-37
2023/02/07 08:38:03;;;;;;;13.38;9.23;;;6.00;99.90;;;;;;5073449;28;20056;-36
2023/02/07 08:40:29;;;;;;;16.52;9.38;;;6.00;99.90;;;;;;5073214;28;20028;-41
2023/02/07 08:42:55;;;;;;;14.55;8.95;;;6.10;99.90;;;;;;5073020;28;20520;-36
2023/02/07 08:45:20;;;;;;;12.43;8.98;;;6.00;99.90;;;;;;5073180;28;20025;-34
2023/02/07 08:47:46;;;;;;;13.98;8.85;;;6.10;99.90;;;;;;5072957;28;20029;-40
2023/02/07 08:50:13;;;;;;;12.32;8.60;;;6.10;99.90;;;;;;5073010;28;20028;-40
2023/02/07 08:52:39;;;;;;;13.20;8.48;;;6.10;99.90;;;;;;5074211;28;20470;-40
2023/02/07 08:55:05;;;;;;;13.70;8.50;;;6.10;99.90;;;;;;5073603;28;20035;-41
2023/02/07 08:57:32;;;;;;;11.80;8.75;;;6.20;99.90;;;;;;5072663;28;20498;-39
2023/02/07 08:59:58;;;;;;;12.43;8.90;;;6.20;99.90;;;;;;5073567;28;20032;-40
2023/02/07 09:02:24;;;;;;;12.45;8.73;;;6.10;99.90;;;;;;5072290;28;20027;-37
2023/02/07 09:04:50;;;;;;;10.52;7.97;;;6.20;99.90;;;;;;5072934;28;20474;-40
2023/02/07 09:07:17;;;;;;;13.32;8.73;;;6.20;99.90;;;;;;5073546;28;20036;-36
2023/02/07 09:09:42;;;;;;;11.90;8.13;;;6.20;99.90;;;;;;5074050;28;20036;-42
2023/02/07 09:12:09;;;;;;;12.43;7.80;;;6.20;99.90;;;;;;5073806;28;20021;-42
2023/02/07 09:14:35;;;;;;;10.85;7.97;;;6.30;99.90;;;;;;5072776;28;20036;-36
2023/02/07 09:17:01;;;;;;;12.98;8.00;;;6.20;99.90;;;;;;5073530;28;20016;-39
2023/02/07 09:19:26;;;;;;;11.13;7.88;;;6.30;99.90;;;;;;5073760;28;20020;-37
2023/02/07 09:21:52;;;;;;;11.73;8.40;;;6.30;99.90;;;;;;5072499;28;20033;-39
2023/02/07 09:24:18;;;;;;;12.50;8.27;;;6.30;99.90;;;;;;5072276;28;20028;-38
2023/02/07 09:26:43;;;;;;;14.38;8.88;;;6.30;99.90;;;;;;5072965;28;20382;-39
2023/02/07 09:29:14;;;;;;;10.02;7.43;;;6.30;99.90;;;;;;5074071;28;20025;-40
2023/02/07 09:31:40;;;;;;;12.50;7.90;;;6.40;99.90;;;;;;5072421;28;20029;-41
2023/02/07 09:34:06;;;;;;;10.95;7.85;;;6.40;99.90;;;;;;5072240;28;20033;-39
2023/02/07 09:36:32;;;;;;;11.52;7.95;;;6.40;99.90;;;;;;5071923;28;20044;-44
2023/02/07 09:38:58;;;;;;;11.88;8.27;;;6.40;99.90;;;;;;5072081;28;20063;-42
2023/02/07 09:42:03;;;;;;;10.80;7.57;;;6.50;99.90;;;;;;5072060;28;20569;-43
2023/02/07 09:44:32;;;;;;;;;;;6.50;99.90;;;;;;5072517;28;20029;-45
2023/02/07 09:47:14;;;;;;;12.63;7.95;;;6.50;99.90;;;;;;5071770;28;19904;-41
2023/02/07 09:50:19;;;;;;;12.30;7.90;;;6.60;99.90;;;;;;5071922;28;20024;-43
2023/02/07 09:53:03;;;;;;;10.13;7.30;;;6.60;99.90;;;;;;5072086;28;20040;-44
2023/02/07 09:55:51;;;;;;;9.68;6.68;;;6.60;99.90;;;;;;5071779;28;20070;-44
2023/02/07 09:58:26;;;;;;;12.73;8.07;;;6.60;99.90;;;;;;5072796;28;20040;-45
2023/02/07 10:01:02;;;;;;;9.85;6.95;;;6.60;99.90;;;;;;5073578;28;20028;-45
2023/02/07 10:03:28;;;;;;;9.43;6.82;;;6.60;99.90;;;;;;5072997;28;20024;-44
2023/02/07 10:05:59;;;;;;;9.45;7.00;;;6.70;99.90;;;;;;5072779;28;20558;-45
2023/02/07 10:08:26;;;;;;;10.52;7.32;;;6.70;99.90;;;;;;5072537;28;20102;-43
2023/02/07 10:11:10;;;;;;;11.48;7.05;;;6.70;99.90;;;;;;5072951;28;20383;-45
2023/02/07 10:13:42;;;;;;;10.02;7.10;;;6.70;99.90;;;;;;5072175;28;20363;-44
2023/02/07 10:16:10;;;;;;;9.85;6.53;;;6.80;99.90;;;;;;5071320;28;20037;-44
2023/02/07 10:18:51;;;;;;;11.82;7.63;;;6.80;99.90;;;;;;5071945;28;20112;-41
2023/02/07 10:21:34;;;;;;;11.57;6.85;;;6.80;99.90;;;;;;5072270;28;20037;-45
2023/02/07 10:24:32;;;;;;;9.93;7.07;;;6.80;99.90;;;;;;5071443;28;20068;-44
2023/02/07 10:27:09;;;;;;;10.82;6.50;;;6.80;99.90;;;;;;5071869;28;20019;-44
2023/02/07 10:29:42;;;;;;;9.85;6.30;;;6.90;99.90;;;;;;5071830;28;20094;-45
2023/02/07 10:32:19;;;;;;;9.93;6.97;;;6.90;99.90;;;;;;5071675;28;20537;-43
2023/02/07 10:34:46;;;;;;;10.25;6.63;;;7.00;99.90;;;;;;5071294;28;20024;-38
2023/02/07 10:37:33;;;;;;;11.50;7.22;;;6.90;99.90;;;;;;5072729;28;20111;-38
2023/02/07 10:40:04;;;;;;;9.88;6.72;;;7.00;99.90;;;;;;5071754;28;20475;-37
2023/02/07 10:42:32;;;;;;;9.93;6.45;;;7.00;99.90;;;;;;5072981;28;20020;-38
2023/02/07 10:44:58;;;;;;;11.93;7.05;;;7.00;99.90;;;;;;5070507;28;20025;-40
2023/02/07 10:47:25;;;;;;;18.70;9.13;;;7.00;99.90;;;;;;5071255;28;20025;-45
2023/02/07 10:49:54;;;;;;;20.38;10.48;;;7.00;99.90;;;;;;5071210;28;20075;-44
2023/02/07 10:52:32;;;;;;;13.68;8.85;;;6.90;99.90;;;;;;5071145;28;20116;-45
2023/02/07 10:55:06;;;;;;;11.63;7.93;;;6.90;99.90;;;;;;5071681;28;20490;-40
2023/02/07 10:57:32;;;;;;;10.75;7.97;;;6.90;99.90;;;;;;5071587;28;20078;-33
2023/02/07 10:59:58;;;;;;;13.50;8.55;;;6.90;99.90;;;;;;5070945;28;20045;-45
2023/02/07 11:02:30;;;;;;;12.88;8.57;;;6.90;99.90;;;;;;5071446;28;20020;-44
2023/02/07 11:05:02;;;;;;;14.18;8.90;;;7.00;99.90;;;;;;5071967;28;20020;-44
2023/02/07 11:07:29;;;;;;;11.80;8.70;;;7.00;99.90;;;;;;5070863;28;20374;-44
2023/02/07 11:10:18;;;;;;;11.88;8.57;;;7.00;99.90;;;;;;5070986;28;20028;-37
2023/02/07 11:12:46;;;;;;;11.80;8.23;;;7.10;99.90;;;;;;5072729;28;20020;-38
2023/02/07 11:15:22;;;;;;;13.45;7.78;;;7.10;99.90;;;;;;5070977;28;20371;-35
2023/02/07 11:17:49;;;;;;;12.32;8.43;;;7.10;99.90;;;;;;5070942;28;20040;-45
2023/02/07 11:20:28;;;;;;;14.30;9.02;;;7.20;99.90;;;;;;5070802;28;20032;-44
2023/02/07 11:22:55;;;;;;;12.35;7.75;;;7.20;99.90;;;;;;5071470;28;20032;-44
2023/02/07 11:25:30;;;;;;;11.30;7.20;;;7.20;99.90;;;;;;5073103;28;20062;-35
2023/02/07 11:27:57;;;;;;;12.40;8.48;;;7.20;99.90;;;;;;5074516;28;20528;-36
2023/02/07 11:30:25;;;;;;;9.60;7.18;;;7.30;99.90;;;;;;5074987;28;20478;-45
2023/02/07 11:33:09;;;;;;;10.95;7.30;;;7.30;99.90;;;;;;5075192;28;20029;-38
2023/02/07 11:35:35;;;;;;;9.98;7.40;;;7.30;99.90;;;;;;5074520;28;20032;-41
2023/02/07 11:38:20;;;;;;;10.00;7.57;;;7.30;99.90;;;;;;5075070;28;20032;-43
2023/02/07 11:40:49;;;;;;;10.32;6.80;;;7.40;99.90;;;;;;5074119;28;20040;-37
2023/02/07 11:43:17;;;;;;;9.68;6.90;;;7.40;99.90;;;;;;5074723;28;20024;-40
2023/02/07 11:45:51;;;;;;;10.52;6.70;;;7.40;99.90;;;;;;5075989;28;20490;-36
2023/02/07 11:48:18;;;;;;;10.48;7.05;;;7.40;99.90;;;;;;5074274;28;20021;-45
2023/02/07 11:50:50;;;;;;;11.90;6.97;;;7.40;99.90;;;;;;5074178;28;20116;-42
2023/02/07 11:53:40;;;;;;;10.35;6.60;;;7.50;99.90;;;;;;5075358;28;20036;-40
2023/02/07 11:56:19;;;;;;;11.85;7.13;;;7.50;99.90;;;;;;5075632;28;20055;-39
2023/02/07 11:58:47;;;;;;;9.48;6.20;;;7.50;99.90;;;;;;5075662;28;20039;-43
2023/02/07 12:01:17;;;;;;;11.50;7.47;;;7.50;99.90;;;;;;5074360;28;20032;-44
2023/02/07 12:03:59;;;;;;;10.60;6.88;;;7.50;99.90;;;;;;5074569;28;20112;-45
2023/02/07 12:06:33;;;;;;;9.10;5.95;;;7.50;99.90;;;;;;5073638;28;20052;-44
2023/02/07 12:08:59;;;;;;;;;;;7.60;99.90;;;;;;5075350;28;20032;-43
2023/02/07 12:11:32;;;;;;;10.70;6.07;;;7.60;99.90;;;;;;5073870;28;19912;-40
2023/02/07 12:14:09;;;;;;;9.40;6.13;;;7.60;99.90;;;;;;5073725;28;20029;-44
2023/02/07 12:16:42;;;;;;;10.48;6.30;;;7.60;99.90;;;;;;5073639;28;20113;-45
2023/02/07 12:19:33;;;;;;;8.77;6.07;;;7.60;99.90;;;;;;5073799;28;20394;-41
2023/02/07 12:22:09;;;;;;;9.52;5.97;;;7.70;99.90;;;;;;5073286;28;20138;-38
2023/02/07 12:24:41;;;;;;;7.95;6.00;;;7.60;99.90;;;;;;5075092;28;20024;-40
2023/02/07 12:27:14;;;;;;;11.18;5.80;;;7.70;99.90;;;;;;5073650;28;20027;-36
2023/02/07 12:29:40;;;;;;;9.10;5.72;;;7.60;99.90;;;;;;5073844;28;20031;-42
2023/02/07 12:32:22;;;;;;;7.18;5.47;;;7.70;99.90;;;;;;5074695;28;20020;-42
2023/02/07 12:35:03;;;;;;;8.43;5.40;;;7.70;99.90;;;;;;5074923;28;20020;-44
2023/02/07 12:37:49;;;;;;;9.18;5.38;;;7.70;99.90;;;;;;5073564;28;20035;-43
2023/02/07 12:40:27;;;;;;;8.63;5.55;;;7.70;99.90;;;;;;5073381;28;20505;-44
2023/02/07 12:43:02;;;;;;;10.00;5.25;;;7.70;99.90;;;;;;5074537;28;20072;-43
2023/02/07 12:45:40;;;;;;;10.50;5.65;;;7.70;99.90;;;;;;5071985;28;20017;-45
2023/02/07 12:48:33;;;;;;;9.45;5.45;;;7.70;99.90;;;;;;5074606;28;20021;-45
2023/02/07 12:51:14;;;;;;;7.82;5.15;;;7.70;99.90;;;;;;5074542;28;20641;-43
2023/02/07 12:54:13;;;;;;;7.47;4.85;;;7.80;99.90;;;;;;5074483;28;20035;-45
2023/02/07 12:56:48;;;;;;;9.13;4.97;;;7.80;99.90;;;;;;5073757;28;20027;-37
2023/02/07 12:59:45;;;;;;;7.93;4.82;;;7.80;99.90;;;;;;5072836;28;20045;-44
2023/02/07 13:02:42;;;;;;;9.35;5.20;;;7.80;99.90;;;;;;5073033;28;20337;-45
2023/02/07 13:05:31;;;;;;;7.40;4.72;;;7.80;99.90;;;;;;5073435;28;20543;-44
2023/02/07 13:08:24;;;;;;;7.85;5.35;;;7.80;99.90;;;;;;5072287;28;20056;-38
2023/02/07 13:10:52;;;;;;;8.40;4.20;;;7.80;99.90;;;;;;5072741;28;20036;-41